This is the latest recevied weather packets stored in our database for station/object EA2MKR. If no packets are shown the sender has not sent any weather packets the latest 10 day(s).
| Time | Temp. | Humidity | Pressure | Rain* | Wind** | Luminosity | Snow |
|---|---|---|---|---|---|---|---|
| 1777994169 | 11.67° C | 81% | 949.7 hPa | 0 mm | - | - | - |
| 1777993869 | 11.67° C | 80% | 949.8 hPa | 0 mm | - | - | - |
| 1777993570 | 11.67° C | 80% | 949.8 hPa | 0.51 mm | - | - | - |
| 1777993276 | 12.22° C | 78% | 949.7 hPa | 0.51 mm | - | - | - |
| 1777992969 | 12.22° C | 77% | 949.8 hPa | 0.25 mm | - | - | - |
| 1777992669 | 12.22° C | 82% | 949.8 hPa | 0.51 mm | - | - | - |
| 1777992368 | 12.22° C | 82% | 949.7 hPa | 1.27 mm | - | - | - |
| 1777992062 | 12.22° C | 86% | 949.7 hPa | 1.52 mm | - | - | - |
| 1777991763 | 12.22° C | 86% | 949.6 hPa | 1.52 mm | - | - | - |
| 1777991551 | 10° C | 89% | 949.6 hPa | 2.29 mm | - | - | - |
| 1777991252 | 10° C | 89% | 949.6 hPa | 2.29 mm | - | - | - |
| 1777990927 | 10° C | 89% | 949.6 hPa | 2.29 mm | - | - | - |
| 1777990628 | 9.44° C | 90% | 949.8 hPa | 2.29 mm | - | - | - |
| 1777990398 | 9.44° C | 89% | 949.9 hPa | 2.29 mm | - | - | - |
| 1777989727 | 9.44° C | 88% | 950.1 hPa | 1.78 mm | - | - | - |
| 1777989428 | 9.44° C | 86% | 950 hPa | 1.52 mm | - | - | - |
| 1777989127 | 10° C | 84% | 950 hPa | 1.27 mm | - | - | - |
| 1777988827 | 11.11° C | 82% | 949.8 hPa | 0.51 mm | - | - | - |
| 1777988527 | 11.67° C | 78% | 949.4 hPa | 0 mm | - | - | - |
| 1777988227 | 12.22° C | 81% | 949.3 hPa | 0 mm | - | - | - |
| 1777987927 | 12.22° C | 81% | 949.2 hPa | 0 mm | - | - | - |
| 1777987627 | 12.78° C | 82% | 949 hPa | 0 mm | - | - | - |
| 1777987397 | 12.78° C | 82% | 948.9 hPa | 0 mm | - | - | - |
| 1777987027 | 12.78° C | 81% | 948.9 hPa | 0 mm | - | - | - |
| 1777986726 | 12.78° C | 79% | 949.2 hPa | 0 mm | - | - | - |
* Rain latest hour (hover to see other rain measurements)
** Current wind speed in m/s (hover to see current wind gust speed)